Yasemin — 9HA2114 — position and weather

sailwx.info

Track history (hours):
 
Tides and Currents Weather Stations Pressure Air Temp Water Temp Dewpoint Dewpoint Depression Visibility Wind Speed Wind Dir Waves Ship Positions

Yasemin

Last reported at 2018-Feb-25 06:08 UTC. Time now 2018-Feb-25 10:04 UTC.
Position N 36°02' W 004°58'.

Length 105 m; draft 4.2 m.

Type: Cargo ship. MMSI: 249988000.

Date/timePositionNaut miles runAvg speedWind from/ knotsBaromVisibWave heightAir tempDewpointWater temp
2018-Feb-25 06:08N 36°02' W 004°58'312.9
2018-Feb-25 05:56N 36°02' W 005°01'511.0
2018-Feb-25 05:27N 36°02' W 005°07'612.8
2018-Feb-25 04:58N 36°01' W 005°15'613.4
2018-Feb-25 04:30N 35°59' W 005°22'713.5
2018-Feb-25 04:00N 35°57' W 005°30'714.3
2018-Feb-25 03:30N 35°55' W 005°38'21311.4
2018-Feb-24 08:52N 37°21' W 009°41'912.7
2018-Feb-24 08:08N 37°30' W 009°45'712.6
2018-Feb-24 07:33N 37°37' W 009°47'812.6
2018-Feb-24 06:53N 37°45' W 009°49'512.9
2018-Feb-24 06:30N 37°50' W 009°50'712.9
2018-Feb-24 06:00N 37°56' W 009°52'613.0
2018-Feb-24 05:30N 38°02' W 009°54'813.1
2018-Feb-24 04:56N 38°10' W 009°56'613.3
2018-Feb-24 04:30N 38°15' W 009°58'713.2
2018-Feb-24 03:59N 38°22' W 010°00'613.3
2018-Feb-24 03:30N 38°28' W 010°02'612.8
2018-Feb-24 03:00N 38°34' W 010°04'612.6
2018-Feb-24 02:30N 38°40' W 010°06'612.7
2018-Feb-24 02:00N 38°47' W 010°06'612.9
2018-Feb-24 01:30N 38°53' W 010°06'713.4
2018-Feb-24 01:00N 38°60' W 010°05'713.7
2018-Feb-24 00:30N 39°07' W 010°04'713.4
2018-Feb-24 00:00N 39°13' W 010°03'713.0
2018-Feb-23 23:30N 39°20' W 010°00'  
2018-Feb-21 01:37N 43°46' W 006°17'212.1
2018-Feb-21 01:29N 43°46' W 006°14'611.8
2018-Feb-21 00:56N 43°44' W 006°06'511.9
2018-Feb-21 00:30N 43°44' W 005°59'611.9
2018-Feb-21 00:00N 43°44' W 005°51'611.6
2018-Feb-20 23:30N 43°43' W 005°43'511.0
2018-Feb-20 23:00N 43°42' W 005°36'611.2
2018-Feb-20 22:30N 43°39' W 005°29'711.5
2018-Feb-20 21:51N 43°37' W 005°19'1511.5
2018-Feb-20 20:32N 43°34' W 004°58'011.9
2018-Feb-20 20:30N 43°34' W 004°58'5411.1
2018-Feb-20 15:37N 43°34' W 003°43'110.3
2018-Feb-20 15:29N 43°34' W 003°41'510.2
2018-Feb-20 15:00N 43°33' W 003°34'5 9.8
2018-Feb-20 14:30N 43°32' W 003°28'5 9.8
2018-Feb-20 14:00N 43°31' W 003°21'5 9.8
2018-Feb-20 13:30N 43°28' W 003°16'5 9.9
2018-Feb-20 13:00N 43°26' W 003°10'4 8.9
2018-Feb-20 12:30N 43°23' W 003°05'4 7.3
2018-Feb-20 12:00N 43°20' W 003°02'0 0.4
2018-Feb-20 11:30N 43°20' W 003°02'0 0.0
2018-Feb-20 11:00N 43°20' W 003°02'0 0.0
2018-Feb-20 10:30N 43°20' W 003°02'0 0.0
2018-Feb-20 10:00N 43°20' W 003°02'0 0.0
2018-Feb-20 09:30N 43°20' W 003°02'0 0.0
2018-Feb-20 09:00N 43°20' W 003°02'0 0.0
2018-Feb-20 08:30N 43°20' W 003°02'0 0.0
2018-Feb-20 08:00N 43°20' W 003°02'0 0.0
2018-Feb-20 07:30N 43°20' W 003°02'0 0.0
2018-Feb-20 07:00N 43°20' W 003°02'0 0.0
2018-Feb-20 06:27N 43°20' W 003°02'0 0.0
2018-Feb-20 06:00N 43°20' W 003°02'0 0.0
2018-Feb-20 05:30N 43°20' W 003°02'0 0.0
2018-Feb-20 05:00N 43°20' W 003°02'0 0.0
2018-Feb-20 04:30N 43°20' W 003°02'0 0.0
2018-Feb-20 04:00N 43°20' W 003°02'0 0.0
2018-Feb-20 03:30N 43°20' W 003°02'0 0.0
2018-Feb-20 03:00N 43°20' W 003°02'0 0.0
2018-Feb-20 02:30N 43°20' W 003°02'0 0.0
2018-Feb-20 02:00N 43°20' W 003°02'0 0.0
2018-Feb-20 01:30N 43°20' W 003°02'0 0.0
2018-Feb-20 01:00N 43°20' W 003°02'0 0.0
2018-Feb-20 00:30N 43°20' W 003°02'0 0.0
2018-Feb-20 00:00N 43°20' W 003°02'0 0.0
2018-Feb-19 23:30N 43°20' W 003°02'0 0.0
2018-Feb-19 23:00N 43°20' W 003°02'0 0.0
2018-Feb-19 22:30N 43°20' W 003°02'0 0.0
2018-Feb-19 21:57N 43°20' W 003°02'0 0.0
2018-Feb-19 21:24N 43°20' W 003°02'0 0.0
2018-Feb-19 21:00N 43°20' W 003°02'0 0.0
2018-Feb-19 20:27N 43°20' W 003°02'0 0.0
2018-Feb-19 20:00N 43°20' W 003°02'0 0.0
2018-Feb-19 19:27N 43°20' W 003°02'0 0.0
2018-Feb-19 19:00N 43°20' W 003°02'0 0.0
2018-Feb-19 18:30N 43°20' W 003°02'0 0.0
2018-Feb-19 18:00N 43°20' W 003°02'0 0.0
2018-Feb-19 17:30N 43°20' W 003°02'0 0.0
2018-Feb-19 17:00N 43°20' W 003°02'0 0.0
2018-Feb-19 16:30N 43°20' W 003°02'0 0.0
2018-Feb-19 16:00N 43°20' W 003°02'0 0.0
2018-Feb-19 15:27N 43°20' W 003°02'0 0.0
2018-Feb-19 14:00N 43°20' W 003°02'0 0.0
2018-Feb-19 13:30N 43°20' W 003°02'0 0.0
2018-Feb-19 13:00N 43°20' W 003°02'0 0.0
2018-Feb-19 12:30N 43°20' W 003°02'0 0.0
2018-Feb-19 12:00N 43°20' W 003°02'0 0.0
2018-Feb-19 11:30N 43°20' W 003°02'0 0.0
2018-Feb-19 11:00N 43°20' W 003°02'0 0.0
2018-Feb-19 10:30N 43°20' W 003°02'0 0.0
2018-Feb-19 10:00N 43°20' W 003°02'0 0.0
2018-Feb-19 09:30N 43°20' W 003°02'0 0.0
2018-Feb-19 09:00N 43°20' W 003°02'0 0.0
2018-Feb-19 08:24N 43°20' W 003°02'0 0.0
2018-Feb-19 08:00N 43°20' W 003°02'0 0.0
2018-Feb-19 07:30N 43°20' W 003°02'0 0.0
2018-Feb-19 07:00N 43°20' W 003°02'0 0.0
2018-Feb-19 06:30N 43°20' W 003°02'0 0.0
2018-Feb-19 06:00N 43°20' W 003°02'0 0.0
2018-Feb-19 05:30N 43°20' W 003°02'0 0.0
2018-Feb-19 05:00N 43°20' W 003°02'0 0.0
2018-Feb-19 04:30N 43°20' W 003°02'0 0.0
2018-Feb-19 04:00N 43°20' W 003°02'0 0.0
2018-Feb-19 03:30N 43°20' W 003°02'0 0.0
2018-Feb-19 03:00N 43°20' W 003°02'0 0.0
2018-Feb-19 02:30N 43°20' W 003°02'0 0.0
2018-Feb-19 02:00N 43°20' W 003°02'0 0.0
2018-Feb-19 01:30N 43°20' W 003°02'0 0.0
2018-Feb-19 01:00N 43°20' W 003°02'0 0.0
2018-Feb-19 00:27N 43°20' W 003°02'0 0.0
2018-Feb-19 00:00N 43°20' W 003°02'0 0.0
2018-Feb-18 23:30N 43°20' W 003°02'0 0.0
2018-Feb-18 23:00N 43°20' W 003°02'0 0.0
2018-Feb-18 22:30N 43°20' W 003°02'0 0.0
2018-Feb-18 22:00N 43°20' W 003°02'0 0.0
2018-Feb-18 21:30N 43°20' W 003°02'0 0.0
2018-Feb-18 20:30N 43°20' W 003°02'0 0.0
2018-Feb-18 20:00N 43°20' W 003°02'0 0.0
2018-Feb-18 19:30N 43°20' W 003°02'0 0.0
2018-Feb-18 19:00N 43°20' W 003°02'0 0.0
2018-Feb-18 18:30N 43°20' W 003°02'0 0.0
2018-Feb-18 18:00N 43°20' W 003°02'0 0.0
2018-Feb-18 17:30N 43°20' W 003°02'0 0.0
2018-Feb-18 17:00N 43°20' W 003°02'0 0.0
2018-Feb-18 16:30N 43°20' W 003°02'0 0.0
2018-Feb-18 16:00N 43°20' W 003°02'0 0.0
2018-Feb-18 15:30N 43°20' W 003°02'0 0.0
2018-Feb-18 15:00N 43°20' W 003°02'0 0.0
2018-Feb-18 14:30N 43°20' W 003°02'0 0.0
2018-Feb-18 14:00N 43°20' W 003°02'0 0.0
2018-Feb-18 13:30N 43°20' W 003°02'0 0.0
2018-Feb-18 13:00N 43°20' W 003°02'0 0.0
2018-Feb-18 12:30N 43°20' W 003°02'0 0.0
2018-Feb-18 12:00N 43°20' W 003°02'0 0.0
2018-Feb-18 11:30N 43°20' W 003°02'0 0.0
2018-Feb-18 11:00N 43°20' W 003°02'0 0.0
2018-Feb-18 10:30N 43°20' W 003°02'0 0.0
2018-Feb-18 10:00N 43°20' W 003°02'0 0.0
2018-Feb-18 09:30N 43°20' W 003°02'0 0.0
2018-Feb-18 08:57N 43°20' W 003°02'0 0.0
2018-Feb-18 08:30N 43°20' W 003°02'0 0.0
2018-Feb-18 08:00N 43°20' W 003°02'0 0.0
2018-Feb-18 07:30N 43°20' W 003°02'0 0.0
2018-Feb-18 07:00N 43°20' W 003°02'0 0.0
2018-Feb-18 06:30N 43°20' W 003°02'0 0.0
2018-Feb-18 06:00N 43°20' W 003°02'0 0.0
2018-Feb-18 05:30N 43°20' W 003°02'0 0.0
2018-Feb-18 05:00N 43°20' W 003°02'0 0.0
2018-Feb-18 04:30N 43°20' W 003°02'0 0.0
2018-Feb-18 04:00N 43°20' W 003°02'0 0.0
2018-Feb-18 03:30N 43°20' W 003°02'0 0.0
2018-Feb-18 03:00N 43°20' W 003°02'0 0.0
2018-Feb-18 02:30N 43°20' W 003°02'0 0.0
2018-Feb-18 02:00N 43°20' W 003°02'0 0.0
2018-Feb-18 01:30N 43°20' W 003°02'0 0.0
2018-Feb-18 00:57N 43°20' W 003°02'0 0.0
2018-Feb-18 00:30N 43°20' W 003°02'0 0.0
2018-Feb-18 00:00N 43°20' W 003°02'0 0.0
2018-Feb-17 23:30N 43°20' W 003°02'0 0.0
2018-Feb-17 23:00N 43°20' W 003°02'0 0.0
2018-Feb-17 22:30N 43°20' W 003°02'0 0.0
2018-Feb-17 22:00N 43°20' W 003°02'0 0.0
2018-Feb-17 21:30N 43°20' W 003°02'0 0.0
2018-Feb-17 21:00N 43°20' W 003°02'0 0.0
2018-Feb-17 20:30N 43°20' W 003°02'0 0.0
2018-Feb-17 19:57N 43°20' W 003°02'0 0.0
2018-Feb-17 19:27N 43°20' W 003°02'0 0.0
2018-Feb-17 19:00N 43°20' W 003°02'0 0.0
2018-Feb-17 18:30N 43°20' W 003°02'0 0.0
2018-Feb-17 18:00N 43°20' W 003°02'0 0.0
2018-Feb-17 17:30N 43°20' W 003°02'0 0.0
2018-Feb-17 17:00N 43°20' W 003°02'0 0.0
2018-Feb-17 16:27N 43°20' W 003°02'0 0.0
2018-Feb-17 16:00N 43°20' W 003°02'0 0.0
2018-Feb-17 15:30N 43°20' W 003°02'0 0.0
2018-Feb-17 15:00N 43°20' W 003°02'0 0.0
2018-Feb-17 14:30N 43°20' W 003°02'0 0.0
2018-Feb-17 14:00N 43°20' W 003°02'0 0.0
2018-Feb-17 13:30N 43°20' W 003°02'0 0.0
2018-Feb-17 13:00N 43°20' W 003°02'0 0.0
2018-Feb-17 12:30N 43°20' W 003°02'0 0.0
2018-Feb-17 12:00N 43°20' W 003°02'0 0.5
2018-Feb-17 11:30N 43°20' W 003°02'3 5.8
2018-Feb-17 11:00N 43°22' W 003°04'3 6.2
2018-Feb-17 10:30N 43°25' W 003°06'3 5.2
2018-Feb-17 10:00N 43°28' W 003°06'4 6.4
2018-Feb-17 09:27N 43°30' W 003°03'4 8.4
2018-Feb-17 09:00N 43°33' W 002°59'4 7.2
2018-Feb-17 08:30N 43°33' W 002°54'4 7.9
2018-Feb-17 08:00N 43°34' W 002°49'4 8.0
2018-Feb-17 07:30N 43°34' W 002°43'2 3.3
2018-Feb-17 07:00N 43°35' W 002°45'5 9.6
2018-Feb-17 06:30N 43°35' W 002°52'5 9.6
2018-Feb-17 06:00N 43°35' W 002°58'5 9.5
2018-Feb-17 05:30N 43°34' W 003°05'5 9.8
2018-Feb-17 05:00N 43°34' W 003°12'510.0
2018-Feb-17 04:30N 43°34' W 003°18'510.2
2018-Feb-17 04:00N 43°33' W 003°25'510.2
2018-Feb-17 03:30N 43°34' W 003°32'510.4
2018-Feb-17 03:00N 43°35' W 003°39'5 9.9
2018-Feb-17 02:30N 43°35' W 003°46'5 9.7
2018-Feb-17 02:00N 43°35' W 003°53'4 0.5
2018-Feb-16 17:18N 43°38' W 003°49'3 9.0
2018-Feb-16 16:59N 43°37' W 003°45'4 8.8
2018-Feb-16 16:30N 43°36' W 003°40'4 8.8
2018-Feb-16 16:00N 43°35' W 003°34'4 8.6
2018-Feb-16 15:30N 43°35' W 003°28'4 8.8
2018-Feb-16 15:00N 43°34' W 003°22'4 8.6
2018-Feb-16 14:30N 43°32' W 003°16'5 9.4
2018-Feb-16 14:00N 43°29' W 003°11'2 4.2
2018-Feb-16 13:30N 43°29' W 003°08'610.5
2018-Feb-16 12:59N 43°35' W 003°10'24710.5
2018-Feb-15 13:26N 47°33' W 004°44'4 9.9
2018-Feb-15 13:00N 47°37' W 004°44'6 9.6
2018-Feb-15 12:25N 47°42' W 004°45'410.2
2018-Feb-15 12:00N 47°45' W 004°50'510.1
2018-Feb-15 11:30N 47°47' W 004°57'5 9.8
2018-Feb-15 10:57N 47°50' W 005°03'4 9.9
2018-Feb-15 10:30N 47°53' W 005°08'610.5
2018-Feb-15 09:58N 47°57' W 005°14'610.6
2018-Feb-15 09:24N 47°60' W 005°22'410.9
2018-Feb-15 09:00N 48°02' W 005°28'611.0
2018-Feb-15 08:27N 48°06' W 005°35'511.1
2018-Feb-15 07:59N 48°09' W 005°41'611.4
2018-Feb-15 07:28N 48°14' W 005°46'611.6
2018-Feb-15 06:58N 48°19' W 005°50'  
Track history (hours):
 
Tides and Currents Weather Stations Pressure Air Temp Water Temp Dewpoint Dewpoint Depression Visibility Wind Speed Wind Dir Waves Ship Positions

Yasemin

Last reported at 2018-Feb-25 06:08 UTC. Time now 2018-Feb-25 10:04 UTC.
Position N 36°02' W 004°58'.

Length 105 m; draft 4.2 m.

Type: Cargo ship. MMSI: 249988000.

Date/timePositionNaut miles runAvg speedWind from/ knotsBaromVisibWave heightAir tempDewpointWater temp
2018-Feb-25 06:08N 36°02' W 004°58'312.9
2018-Feb-25 05:56N 36°02' W 005°01'511.0
2018-Feb-25 05:27N 36°02' W 005°07'612.8
2018-Feb-25 04:58N 36°01' W 005°15'613.4
2018-Feb-25 04:30N 35°59' W 005°22'713.5
2018-Feb-25 04:00N 35°57' W 005°30'714.3
2018-Feb-25 03:30N 35°55' W 005°38'21311.4
2018-Feb-24 08:52N 37°21' W 009°41'912.7
2018-Feb-24 08:08N 37°30' W 009°45'712.6
2018-Feb-24 07:33N 37°37' W 009°47'812.6
2018-Feb-24 06:53N 37°45' W 009°49'512.9
2018-Feb-24 06:30N 37°50' W 009°50'712.9
2018-Feb-24 06:00N 37°56' W 009°52'613.0
2018-Feb-24 05:30N 38°02' W 009°54'813.1
2018-Feb-24 04:56N 38°10' W 009°56'613.3
2018-Feb-24 04:30N 38°15' W 009°58'713.2
2018-Feb-24 03:59N 38°22' W 010°00'613.3
2018-Feb-24 03:30N 38°28' W 010°02'612.8
2018-Feb-24 03:00N 38°34' W 010°04'612.6
2018-Feb-24 02:30N 38°40' W 010°06'612.7
2018-Feb-24 02:00N 38°47' W 010°06'612.9
2018-Feb-24 01:30N 38°53' W 010°06'713.4
2018-Feb-24 01:00N 38°60' W 010°05'713.7
2018-Feb-24 00:30N 39°07' W 010°04'713.4
2018-Feb-24 00:00N 39°13' W 010°03'713.0
2018-Feb-23 23:30N 39°20' W 010°00'  
2018-Feb-21 01:37N 43°46' W 006°17'212.1
2018-Feb-21 01:29N 43°46' W 006°14'611.8
2018-Feb-21 00:56N 43°44' W 006°06'511.9
2018-Feb-21 00:30N 43°44' W 005°59'611.9
2018-Feb-21 00:00N 43°44' W 005°51'611.6
2018-Feb-20 23:30N 43°43' W 005°43'511.0
2018-Feb-20 23:00N 43°42' W 005°36'611.2
2018-Feb-20 22:30N 43°39' W 005°29'711.5
2018-Feb-20 21:51N 43°37' W 005°19'1511.5
2018-Feb-20 20:32N 43°34' W 004°58'011.9
2018-Feb-20 20:30N 43°34' W 004°58'5411.1
2018-Feb-20 15:37N 43°34' W 003°43'110.3
2018-Feb-20 15:29N 43°34' W 003°41'510.2
2018-Feb-20 15:00N 43°33' W 003°34'5 9.8
2018-Feb-20 14:30N 43°32' W 003°28'5 9.8
2018-Feb-20 14:00N 43°31' W 003°21'5 9.8
2018-Feb-20 13:30N 43°28' W 003°16'5 9.9
2018-Feb-20 13:00N 43°26' W 003°10'4 8.9
2018-Feb-20 12:30N 43°23' W 003°05'4 7.3
2018-Feb-20 12:00N 43°20' W 003°02'0 0.4
2018-Feb-20 11:30N 43°20' W 003°02'0 0.0
2018-Feb-20 11:00N 43°20' W 003°02'0 0.0
2018-Feb-20 10:30N 43°20' W 003°02'0 0.0
2018-Feb-20 10:00N 43°20' W 003°02'0 0.0
2018-Feb-20 09:30N 43°20' W 003°02'0 0.0
2018-Feb-20 09:00N 43°20' W 003°02'0 0.0
2018-Feb-20 08:30N 43°20' W 003°02'0 0.0
2018-Feb-20 08:00N 43°20' W 003°02'0 0.0
2018-Feb-20 07:30N 43°20' W 003°02'0 0.0
2018-Feb-20 07:00N 43°20' W 003°02'0 0.0
2018-Feb-20 06:27N 43°20' W 003°02'0 0.0
2018-Feb-20 06:00N 43°20' W 003°02'0 0.0
2018-Feb-20 05:30N 43°20' W 003°02'0 0.0
2018-Feb-20 05:00N 43°20' W 003°02'0 0.0
2018-Feb-20 04:30N 43°20' W 003°02'0 0.0
2018-Feb-20 04:00N 43°20' W 003°02'0 0.0
2018-Feb-20 03:30N 43°20' W 003°02'0 0.0
2018-Feb-20 03:00N 43°20' W 003°02'0 0.0
2018-Feb-20 02:30N 43°20' W 003°02'0 0.0
2018-Feb-20 02:00N 43°20' W 003°02'0 0.0
2018-Feb-20 01:30N 43°20' W 003°02'0 0.0
2018-Feb-20 01:00N 43°20' W 003°02'0 0.0
2018-Feb-20 00:30N 43°20' W 003°02'0 0.0
2018-Feb-20 00:00N 43°20' W 003°02'0 0.0
2018-Feb-19 23:30N 43°20' W 003°02'0 0.0
2018-Feb-19 23:00N 43°20' W 003°02'0 0.0
2018-Feb-19 22:30N 43°20' W 003°02'0 0.0
2018-Feb-19 21:57N 43°20' W 003°02'0 0.0
2018-Feb-19 21:24N 43°20' W 003°02'0 0.0
2018-Feb-19 21:00N 43°20' W 003°02'0 0.0
2018-Feb-19 20:27N 43°20' W 003°02'0 0.0
2018-Feb-19 20:00N 43°20' W 003°02'0 0.0
2018-Feb-19 19:27N 43°20' W 003°02'0 0.0
2018-Feb-19 19:00N 43°20' W 003°02'0 0.0
2018-Feb-19 18:30N 43°20' W 003°02'0 0.0
2018-Feb-19 18:00N 43°20' W 003°02'0 0.0
2018-Feb-19 17:30N 43°20' W 003°02'0 0.0
2018-Feb-19 17:00N 43°20' W 003°02'0 0.0
2018-Feb-19 16:30N 43°20' W 003°02'0 0.0
2018-Feb-19 16:00N 43°20' W 003°02'0 0.0
2018-Feb-19 15:27N 43°20' W 003°02'0 0.0
2018-Feb-19 14:00N 43°20' W 003°02'0 0.0
2018-Feb-19 13:30N 43°20' W 003°02'0 0.0
2018-Feb-19 13:00N 43°20' W 003°02'0 0.0
2018-Feb-19 12:30N 43°20' W 003°02'0 0.0
2018-Feb-19 12:00N 43°20' W 003°02'0 0.0
2018-Feb-19 11:30N 43°20' W 003°02'0 0.0
2018-Feb-19 11:00N 43°20' W 003°02'0 0.0
2018-Feb-19 10:30N 43°20' W 003°02'0 0.0
2018-Feb-19 10:00N 43°20' W 003°02'0 0.0
2018-Feb-19 09:30N 43°20' W 003°02'0 0.0
2018-Feb-19 09:00N 43°20' W 003°02'0 0.0
2018-Feb-19 08:24N 43°20' W 003°02'0 0.0
2018-Feb-19 08:00N 43°20' W 003°02'0 0.0
2018-Feb-19 07:30N 43°20' W 003°02'0 0.0
2018-Feb-19 07:00N 43°20' W 003°02'0 0.0
2018-Feb-19 06:30N 43°20' W 003°02'0 0.0
2018-Feb-19 06:00N 43°20' W 003°02'0 0.0
2018-Feb-19 05:30N 43°20' W 003°02'0 0.0
2018-Feb-19 05:00N 43°20' W 003°02'0 0.0
2018-Feb-19 04:30N 43°20' W 003°02'0 0.0
2018-Feb-19 04:00N 43°20' W 003°02'0 0.0
2018-Feb-19 03:30N 43°20' W 003°02'0 0.0
2018-Feb-19 03:00N 43°20' W 003°02'0 0.0
2018-Feb-19 02:30N 43°20' W 003°02'0 0.0
2018-Feb-19 02:00N 43°20' W 003°02'0 0.0
2018-Feb-19 01:30N 43°20' W 003°02'0 0.0
2018-Feb-19 01:00N 43°20' W 003°02'0 0.0
2018-Feb-19 00:27N 43°20' W 003°02'0 0.0
2018-Feb-19 00:00N 43°20' W 003°02'0 0.0
2018-Feb-18 23:30N 43°20' W 003°02'0 0.0
2018-Feb-18 23:00N 43°20' W 003°02'0 0.0
2018-Feb-18 22:30N 43°20' W 003°02'0 0.0
2018-Feb-18 22:00N 43°20' W 003°02'0 0.0
2018-Feb-18 21:30N 43°20' W 003°02'0 0.0
2018-Feb-18 20:30N 43°20' W 003°02'0 0.0
2018-Feb-18 20:00N 43°20' W 003°02'0 0.0
2018-Feb-18 19:30N 43°20' W 003°02'0 0.0
2018-Feb-18 19:00N 43°20' W 003°02'0 0.0
2018-Feb-18 18:30N 43°20' W 003°02'0 0.0
2018-Feb-18 18:00N 43°20' W 003°02'0 0.0
2018-Feb-18 17:30N 43°20' W 003°02'0 0.0
2018-Feb-18 17:00N 43°20' W 003°02'0 0.0
2018-Feb-18 16:30N 43°20' W 003°02'0 0.0
2018-Feb-18 16:00N 43°20' W 003°02'0 0.0
2018-Feb-18 15:30N 43°20' W 003°02'0 0.0
2018-Feb-18 15:00N 43°20' W 003°02'0 0.0
2018-Feb-18 14:30N 43°20' W 003°02'0 0.0
2018-Feb-18 14:00N 43°20' W 003°02'0 0.0
2018-Feb-18 13:30N 43°20' W 003°02'0 0.0
2018-Feb-18 13:00N 43°20' W 003°02'0 0.0
2018-Feb-18 12:30N 43°20' W 003°02'0 0.0
2018-Feb-18 12:00N 43°20' W 003°02'0 0.0
2018-Feb-18 11:30N 43°20' W 003°02'0 0.0
2018-Feb-18 11:00N 43°20' W 003°02'0 0.0
2018-Feb-18 10:30N 43°20' W 003°02'0 0.0
2018-Feb-18 10:00N 43°20' W 003°02'0 0.0
2018-Feb-18 09:30N 43°20' W 003°02'0 0.0
2018-Feb-18 08:57N 43°20' W 003°02'0 0.0
2018-Feb-18 08:30N 43°20' W 003°02'0 0.0
2018-Feb-18 08:00N 43°20' W 003°02'0 0.0
2018-Feb-18 07:30N 43°20' W 003°02'0 0.0
2018-Feb-18 07:00N 43°20' W 003°02'0 0.0
2018-Feb-18 06:30N 43°20' W 003°02'0 0.0
2018-Feb-18 06:00N 43°20' W 003°02'0 0.0
2018-Feb-18 05:30N 43°20' W 003°02'0 0.0
2018-Feb-18 05:00N 43°20' W 003°02'0 0.0
2018-Feb-18 04:30N 43°20' W 003°02'0 0.0
2018-Feb-18 04:00N 43°20' W 003°02'0 0.0
2018-Feb-18 03:30N 43°20' W 003°02'0 0.0
2018-Feb-18 03:00N 43°20' W 003°02'0 0.0
2018-Feb-18 02:30N 43°20' W 003°02'0 0.0
2018-Feb-18 02:00N 43°20' W 003°02'0 0.0
2018-Feb-18 01:30N 43°20' W 003°02'0 0.0
2018-Feb-18 00:57N 43°20' W 003°02'0 0.0
2018-Feb-18 00:30N 43°20' W 003°02'0 0.0
2018-Feb-18 00:00N 43°20' W 003°02'0 0.0
2018-Feb-17 23:30N 43°20' W 003°02'0 0.0
2018-Feb-17 23:00N 43°20' W 003°02'0 0.0
2018-Feb-17 22:30N 43°20' W 003°02'0 0.0
2018-Feb-17 22:00N 43°20' W 003°02'0 0.0
2018-Feb-17 21:30N 43°20' W 003°02'0 0.0
2018-Feb-17 21:00N 43°20' W 003°02'0 0.0
2018-Feb-17 20:30N 43°20' W 003°02'0 0.0
2018-Feb-17 19:57N 43°20' W 003°02'0 0.0
2018-Feb-17 19:27N 43°20' W 003°02'0 0.0
2018-Feb-17 19:00N 43°20' W 003°02'0 0.0
2018-Feb-17 18:30N 43°20' W 003°02'0 0.0
2018-Feb-17 18:00N 43°20' W 003°02'0 0.0
2018-Feb-17 17:30N 43°20' W 003°02'0 0.0
2018-Feb-17 17:00N 43°20' W 003°02'0 0.0
2018-Feb-17 16:27N 43°20' W 003°02'0 0.0
2018-Feb-17 16:00N 43°20' W 003°02'0 0.0
2018-Feb-17 15:30N 43°20' W 003°02'0 0.0
2018-Feb-17 15:00N 43°20' W 003°02'0 0.0
2018-Feb-17 14:30N 43°20' W 003°02'0 0.0
2018-Feb-17 14:00N 43°20' W 003°02'0 0.0
2018-Feb-17 13:30N 43°20' W 003°02'0 0.0
2018-Feb-17 13:00N 43°20' W 003°02'0 0.0
2018-Feb-17 12:30N 43°20' W 003°02'0 0.0
2018-Feb-17 12:00N 43°20' W 003°02'0 0.5
2018-Feb-17 11:30N 43°20' W 003°02'3 5.8
2018-Feb-17 11:00N 43°22' W 003°04'3 6.2
2018-Feb-17 10:30N 43°25' W 003°06'3 5.2
2018-Feb-17 10:00N 43°28' W 003°06'4 6.4
2018-Feb-17 09:27N 43°30' W 003°03'4 8.4
2018-Feb-17 09:00N 43°33' W 002°59'4 7.2
2018-Feb-17 08:30N 43°33' W 002°54'4 7.9
2018-Feb-17 08:00N 43°34' W 002°49'4 8.0
2018-Feb-17 07:30N 43°34' W 002°43'2 3.3
2018-Feb-17 07:00N 43°35' W 002°45'5 9.6
2018-Feb-17 06:30N 43°35' W 002°52'5 9.6
2018-Feb-17 06:00N 43°35' W 002°58'5 9.5
2018-Feb-17 05:30N 43°34' W 003°05'5 9.8
2018-Feb-17 05:00N 43°34' W 003°12'510.0
2018-Feb-17 04:30N 43°34' W 003°18'510.2
2018-Feb-17 04:00N 43°33' W 003°25'510.2
2018-Feb-17 03:30N 43°34' W 003°32'510.4
2018-Feb-17 03:00N 43°35' W 003°39'5 9.9
2018-Feb-17 02:30N 43°35' W 003°46'5 9.7
2018-Feb-17 02:00N 43°35' W 003°53'4 0.5
2018-Feb-16 17:18N 43°38' W 003°49'3 9.0
2018-Feb-16 16:59N 43°37' W 003°45'4 8.8
2018-Feb-16 16:30N 43°36' W 003°40'4 8.8
2018-Feb-16 16:00N 43°35' W 003°34'4 8.6
2018-Feb-16 15:30N 43°35' W 003°28'4 8.8
2018-Feb-16 15:00N 43°34' W 003°22'4 8.6
2018-Feb-16 14:30N 43°32' W 003°16'5 9.4
2018-Feb-16 14:00N 43°29' W 003°11'2 4.2
2018-Feb-16 13:30N 43°29' W 003°08'610.5
2018-Feb-16 12:59N 43°35' W 003°10'24710.5
2018-Feb-15 13:26N 47°33' W 004°44'4 9.9
2018-Feb-15 13:00N 47°37' W 004°44'6 9.6
2018-Feb-15 12:25N 47°42' W 004°45'410.2
2018-Feb-15 12:00N 47°45' W 004°50'510.1
2018-Feb-15 11:30N 47°47' W 004°57'5 9.8
2018-Feb-15 10:57N 47°50' W 005°03'4 9.9
2018-Feb-15 10:30N 47°53' W 005°08'610.5
2018-Feb-15 09:58N 47°57' W 005°14'610.6
2018-Feb-15 09:24N 47°60' W 005°22'410.9
2018-Feb-15 09:00N 48°02' W 005°28'611.0
2018-Feb-15 08:27N 48°06' W 005°35'511.1
2018-Feb-15 07:59N 48°09' W 005°41'611.4
2018-Feb-15 07:28N 48°14' W 005°46'611.6
2018-Feb-15 06:58N 48°19' W 005°50'  

Dump ship's entire track history